Time;durP1;ratioP1;P1;durP2;ratioP2;P2;SDS_P1;SDS_P2;PMS_P1;PMS_P2;Temp;Humidity;BMP_temperature;BMP_pressure;BME280_temperature;BME280_humidity;BME280_pressure;Samples;Min_cycle;Max_cycle;Signal;HPM_P1;HPM_P2
2022/11/07 00:04:07;;;;;;;16.13;11.90;;;;;;;7.17;90.69;100373.19;5005231;28;20583;-64
2022/11/07 00:15:12;;;;;;;21.27;13.40;;;;;;;7.16;90.71;100374.09;5014165;28;20586;-65
2022/11/07 01:50:20;;;;;;;15.52;11.00;;;;;;;7.48;92.32;100339.31;5011003;28;20532;-63
2022/11/07 02:28:07;;;;;;;22.70;11.95;;;;;;;7.59;91.02;100339.63;5008849;28;20420;-64
2022/11/07 02:48:31;;;;;;;14.20;10.35;;;;;;;7.56;91.70;100344.16;4993505;28;20052;-63
2022/11/07 02:59:31;;;;;;;14.80;10.45;;;;;;;7.58;92.49;100334.47;4999474;28;20425;-65
2022/11/07 03:01:58;;;;;;;13.70;10.15;;;;;;;7.63;91.79;100342.09;4994338;28;20054;-63
2022/11/07 03:04:25;;;;;;;17.30;10.98;;;;;;;7.64;91.79;100334.13;5001688;28;20054;-63
2022/11/07 03:11:20;;;;;;;12.95;9.55;;;;;;;7.65;91.77;100343.69;5005016;28;20052;-63
2022/11/07 03:13:48;;;;;;;14.68;10.10;;;;;;;7.67;91.42;100341.00;5001060;28;20121;-63
2022/11/07 03:16:17;;;;;;;15.00;10.52;;;;;;;7.59;92.17;100342.22;5007444;28;20068;-66
2022/11/07 03:18:44;;;;;;;14.32;9.90;;;;;;;7.59;92.16;100347.47;5004837;28;20510;-64
2022/11/07 03:21:11;;;;;;;12.65;9.55;;;;;;;7.63;92.10;100350.78;5004601;28;20144;-64
2022/11/07 03:27:50;;;;;;;13.48;9.50;;;;;;;7.62;93.01;100359.59;4999200;28;20167;-64
2022/11/07 03:35:28;;;;;;;12.40;9.07;;;;;;;7.64;93.32;100372.59;4995109;28;20049;-65
2022/11/07 03:42:19;;;;;;;14.23;8.98;;;;;;;7.77;92.60;100374.50;5009863;28;20616;-64
2022/11/07 03:44:46;;;;;;;11.38;8.88;;;;;;;7.76;92.33;100380.69;5007145;28;21157;-63
2022/11/07 03:47:13;;;;;;;10.35;7.65;;;;;;;7.79;92.14;100385.78;5007991;28;20064;-64
2022/11/07 03:49:40;;;;;;;11.88;9.38;;;;;;;7.80;93.13;100381.38;5002020;28;20049;-64
2022/11/07 03:52:07;;;;;;;14.50;8.55;;;;;;;7.81;93.24;100386.53;5006419;28;20489;-65
2022/11/07 03:58:48;;;;;;;14.63;8.63;;;;;;;7.90;92.30;100390.44;5005930;28;20069;-63
2022/11/07 04:01:15;;;;;;;12.02;9.25;;;;;;;7.87;92.99;100393.22;5027404;28;20046;-64
2022/11/07 04:03:42;;;;;;;10.50;8.38;;;;;;;7.85;93.34;100392.47;5010025;28;20046;-64
2022/11/07 04:19:25;;;;;;;11.27;8.18;;;;;;;8.03;91.94;100388.88;4999560;28;20131;-66
2022/11/07 04:34:45;;;;;;;9.82;7.65;;;;;;;8.21;90.63;100388.84;5013323;28;20044;-63
2022/11/07 04:37:12;;;;;;;11.10;8.38;;;;;;;8.24;91.13;100400.03;5011401;28;20148;-64
2022/11/07 04:39:39;;;;;;;8.50;7.22;;;;;;;8.28;90.06;100398.06;5008204;28;20041;-63
2022/11/07 04:46:31;;;;;;;9.27;7.15;;;;;;;8.24;90.68;100394.78;5003475;28;20122;-63
2022/11/07 04:48:58;;;;;;;9.98;7.30;;;;;;;8.25;90.45;100403.50;5003888;28;20055;-63
2022/11/07 04:51:26;;;;;;;8.02;6.68;;;;;;;8.25;90.08;100409.59;5006262;28;20137;-64
2022/11/07 04:53:53;;;;;;;8.60;6.88;;;;;;;8.27;90.76;100414.75;5027098;28;20057;-65
2022/11/07 04:56:20;;;;;;;10.65;6.90;;;;;;;8.34;89.67;100413.50;5010764;28;20057;-64
2022/11/07 04:58:48;;;;;;;9.38;7.50;;;;;;;8.29;89.71;100411.13;5012696;28;20069;-64
2022/11/07 05:40:04;;;;;;;8.52;6.50;;;;;;;8.37;89.04;100436.97;4993905;28;20044;-63
2022/11/07 05:42:31;;;;;;;7.53;5.93;;;;;;;8.43;88.44;100438.44;4997430;28;20141;-63
2022/11/07 06:23:43;;;;;;;7.45;4.95;;;;;;;8.62;86.72;100489.84;5001471;28;20134;-63
2022/11/07 06:26:10;;;;;;;6.57;5.15;;;;;;;8.55;87.06;100485.84;5003989;28;20137;-63
2022/11/07 06:50:19;;;;;;;7.20;4.75;;;;;;;8.63;86.62;100486.28;4999644;28;20517;-64
2022/11/07 06:52:46;;;;;;;7.53;5.00;;;;;;;8.63;86.59;100502.03;5003760;28;20523;-64
2022/11/07 06:55:14;;;;;;;8.43;5.45;;;;;;;8.56;87.32;100498.06;5005631;28;20083;-64
2022/11/07 06:57:41;;;;;;;8.25;4.95;;;;;;;8.53;87.28;100502.59;5001598;28;20056;-64
2022/11/07 07:00:09;;;;;;;10.35;4.85;;;;;;;8.53;87.81;100487.72;5007905;28;20589;-64
2022/11/07 07:02:36;;;;;;;10.73;5.38;;;;;;;8.52;87.28;100499.13;5008065;28;20054;-64
2022/11/07 07:05:23;;;;;;;8.65;5.57;;;;;;;8.53;87.46;100497.34;5005131;28;20046;-64
2022/11/07 07:07:50;;;;;;;8.57;5.15;;;;;;;8.57;86.91;100501.53;5003929;28;20529;-64
2022/11/07 07:10:18;;;;;;;8.75;5.47;;;;;;;8.58;87.24;100504.06;5022298;28;20454;-64
2022/11/07 07:12:45;;;;;;;6.28;4.72;;;;;;;8.58;87.47;100509.31;5011438;28;20559;-64
2022/11/07 07:15:12;;;;;;;8.02;4.88;;;;;;;8.63;87.01;100515.16;5011221;28;20060;-65
2022/11/07 07:17:40;;;;;;;7.13;5.20;;;;;;;8.65;87.07;100515.09;5008169;28;20145;-64
2022/11/07 07:20:07;;;;;;;6.80;4.65;;;;;;;8.67;87.00;100518.47;5008663;28;20160;-65
2022/11/07 07:22:35;;;;;;;8.20;5.30;;;;;;;8.65;87.86;100514.25;5008805;28;20050;-63
2022/11/07 07:25:02;;;;;;;7.45;5.60;;;;;;;8.65;87.28;100517.72;5007285;28;20050;-63
2022/11/07 07:27:29;;;;;;;6.75;4.88;;;;;;;8.65;87.94;100522.13;5008093;28;20061;-61
2022/11/07 07:29:56;;;;;;;8.43;5.45;;;;;;;8.65;87.53;100530.00;5005191;28;20050;-63
2022/11/07 07:32:24;;;;;;;10.18;5.03;;;;;;;8.67;87.61;100526.34;5004834;28;20066;-65
2022/11/07 07:34:51;;;;;;;9.18;5.13;;;;;;;8.65;87.71;100519.50;5010233;28;20140;-64
2022/11/07 07:37:18;;;;;;;8.25;6.07;;;;;;;8.77;87.05;100524.06;5015015;28;20050;-64
2022/11/07 07:39:45;;;;;;;9.75;5.60;;;;;;;8.83;86.61;100523.78;5004089;28;20209;-63
2022/11/07 07:42:12;;;;;;;7.63;4.70;;;;;;;8.82;86.66;100520.25;4993306;28;20145;-63
2022/11/07 07:44:39;;;;;;;8.55;5.95;;;;;;;8.81;86.77;100525.59;5002800;28;20422;-64
2022/11/07 07:47:06;;;;;;;6.35;4.53;;;;;;;8.79;87.59;100530.94;5003237;28;20076;-64
2022/11/07 07:49:37;;;;;;;7.55;5.03;;;;;;;8.76;87.43;100520.59;5008199;28;20053;-64
2022/11/07 07:52:05;;;;;;;7.03;4.47;;;;;;;8.80;87.86;100522.13;5010591;28;20161;-64
2022/11/07 07:54:32;;;;;;;8.45;4.13;;;;;;;8.83;87.39;100518.53;5005174;28;20054;-64
2022/11/07 07:57:00;;;;;;;8.02;4.55;;;;;;;8.84;87.61;100528.09;5008146;28;20053;-62
2022/11/07 07:59:27;;;;;;;4.80;3.30;;;;;;;8.87;87.85;100525.28;5000449;28;20070;-64
2022/11/07 08:01:54;;;;;;;7.32;4.05;;;;;;;8.93;87.24;100532.00;5011407;28;21431;-63
2022/11/07 08:04:23;;;;;;;7.03;4.03;;;;;;;8.96;87.03;100518.69;5007106;28;20054;-64
2022/11/07 08:06:50;;;;;;;6.53;3.83;;;;;;;8.99;87.47;100515.91;5008527;28;20076;-62
2022/11/07 08:09:17;;;;;;;8.65;3.72;;;;;;;9.03;87.15;100517.44;4998479;28;20517;-64
2022/11/07 08:11:44;;;;;;;5.93;3.33;;;;;;;9.08;87.44;100524.13;5005438;28;20046;-63
2022/11/07 08:14:12;;;;;;;5.95;3.58;;;;;;;9.16;87.15;100523.72;5001663;28;20401;-64
2022/11/07 08:16:39;;;;;;;6.30;3.38;;;;;;;9.23;86.81;100532.09;4998170;28;20540;-64
2022/11/07 08:19:06;;;;;;;5.97;3.45;;;;;;;9.25;86.19;100532.88;5005382;28;20668;-63
2022/11/07 08:21:33;;;;;;;6.13;3.20;;;;;;;9.34;85.75;100541.09;5007787;28;20058;-63
2022/11/07 08:24:02;;;;;;;8.10;3.38;;;;;;;9.37;85.92;100537.47;5013955;28;20053;-62
2022/11/07 08:26:30;;;;;;;5.85;3.40;;;;;;;9.37;85.98;100535.69;5000014;28;20414;-63
2022/11/07 08:28:57;;;;;;;7.95;3.72;;;;;;;9.46;85.97;100533.47;5005907;28;20058;-62
2022/11/07 08:31:24;;;;;;;6.22;2.78;;;;;;;9.51;86.13;100532.28;5005292;28;20125;-63
2022/11/07 08:33:51;;;;;;;4.93;3.10;;;;;;;9.55;85.78;100525.06;5004166;28;20050;-64
2022/11/07 08:36:18;;;;;;;5.57;2.88;;;;;;;9.57;85.53;100534.56;4996930;28;20068;-64
2022/11/07 08:38:46;;;;;;;3.67;2.65;;;;;;;9.67;85.76;100541.91;5008307;28;20057;-64
2022/11/07 08:41:13;;;;;;;9.10;3.40;;;;;;;9.72;85.55;100529.38;5000964;28;20540;-63
2022/11/07 08:43:48;;;;;;;4.05;2.55;;;;;;;9.79;85.14;100535.97;5006585;28;20447;-63
2022/11/07 08:46:15;;;;;;;6.50;2.88;;;;;;;9.87;84.75;100542.50;5004590;28;20074;-64
2022/11/07 08:48:42;;;;;;;5.47;3.17;;;;;;;9.89;84.72;100531.88;4999435;28;20565;-63
2022/11/07 08:51:09;;;;;;;4.18;2.60;;;;;;;10.06;84.73;100541.44;5004536;28;20081;-63
2022/11/07 08:53:36;;;;;;;4.72;2.67;;;;;;;10.13;84.11;100527.84;5015439;28;20046;-63
2022/11/07 08:56:07;;;;;;;4.72;2.80;;;;;;;10.12;84.01;100541.06;5027696;28;20054;-64
2022/11/07 08:58:35;;;;;;;6.50;2.65;;;;;;;10.17;84.25;100531.13;5018517;28;20071;-63
2022/11/07 09:01:06;;;;;;;5.43;2.33;;;;;;;10.17;83.84;100556.56;5011807;28;20054;-63
2022/11/07 09:03:35;;;;;;;4.72;2.40;;;;;;;10.17;83.98;100541.63;5000599;28;20134;-63
2022/11/07 09:06:22;;;;;;;7.20;2.70;;;;;;;10.24;84.10;100539.50;5004494;28;20164;-64
2022/11/07 09:08:49;;;;;;;3.70;2.45;;;;;;;10.27;83.52;100542.00;5011300;28;20069;-63
2022/11/07 09:11:17;;;;;;;5.15;2.72;;;;;;;10.29;83.69;100551.47;5003229;28;20043;-63
2022/11/07 09:13:48;;;;;;;3.92;2.47;;;;;;;10.32;83.59;100537.31;5004576;28;20089;-64
2022/11/07 09:16:18;;;;;;;5.88;2.88;;;;;;;10.33;83.21;100545.09;4995985;28;20129;-62
2022/11/07 09:18:47;;;;;;;4.93;2.80;;;;;;;10.38;83.33;100540.41;5013949;28;20629;-64
2022/11/07 09:21:14;;;;;;;4.70;2.13;;;;;;;10.39;83.59;100543.88;5000383;28;20054;-63
2022/11/07 09:23:49;;;;;;;3.25;2.50;;;;;;;10.46;83.18;100547.00;5010749;28;20133;-63
2022/11/07 09:26:16;;;;;;;5.60;2.40;;;;;;;10.45;83.01;100550.59;5014330;28;20048;-63
2022/11/07 09:28:43;;;;;;;5.60;2.40;;;;;;;10.48;82.97;100543.34;5004134;28;20056;-62
2022/11/07 09:31:18;;;;;;;7.95;2.60;;;;;;;10.55;82.97;100539.41;5018742;28;20483;-63
2022/11/07 09:33:45;;;;;;;4.55;2.25;;;;;;;10.58;82.89;100549.78;5008342;28;20057;-65
2022/11/07 09:36:12;;;;;;;4.60;2.10;;;;;;;10.72;82.31;100553.34;5010352;28;20078;-63
2022/11/07 09:38:39;;;;;;;3.53;2.00;;;;;;;10.76;82.28;100550.44;5014179;28;20067;-63
2022/11/07 09:41:42;;;;;;;4.25;1.95;;;;;;;10.84;81.77;100549.94;5000629;28;20046;-63
2022/11/07 09:44:12;;;;;;;5.15;2.10;;;;;;;10.95;81.42;100544.03;4997471;28;20158;-63
2022/11/07 09:46:58;;;;;;;4.18;2.00;;;;;;;11.05;81.25;100559.19;5034410;28;20045;-63
2022/11/07 09:49:28;;;;;;;;;;;;;;;11.18;80.53;100561.91;5026053;28;20088;-64
2022/11/07 09:52:02;;;;;;;5.00;1.88;;;;;;;11.26;80.53;100550.88;5035749;28;19976;-64
2022/11/07 09:54:32;;;;;;;5.05;2.22;;;;;;;11.29;80.50;100555.94;5011153;28;20140;-63
2022/11/07 09:57:00;;;;;;;4.50;1.92;;;;;;;11.31;80.08;100560.19;5004457;28;20462;-63
2022/11/07 09:59:37;;;;;;;3.10;1.95;;;;;;;11.34;79.55;100556.50;4991764;28;20088;-63
2022/11/07 10:02:12;;;;;;;6.75;2.50;;;;;;;11.44;79.62;100560.25;5013013;28;20050;-63
2022/11/07 10:04:40;;;;;;;5.25;1.60;;;;;;;11.44;79.46;100559.38;4997671;28;20187;-64
2022/11/07 10:07:19;;;;;;;7.45;3.13;;;;;;;11.50;79.12;100565.13;5017131;28;20061;-63
2022/11/07 10:09:58;;;;;;;4.85;2.00;;;;;;;11.55;79.42;100549.88;5015796;28;20110;-64
2022/11/07 10:12:51;;;;;;;3.92;1.83;;;;;;;11.71;79.10;100554.13;4994835;28;20684;-64
2022/11/07 10:15:27;;;;;;;8.40;1.85;;;;;;;11.83;78.74;100559.50;5003956;28;20597;-64
2022/11/07 10:18:06;;;;;;;5.40;2.17;;;;;;;11.95;77.53;100547.31;5003755;28;20054;-64
2022/11/07 10:21:02;;;;;;;5.25;1.88;;;;;;;12.04;77.77;100565.16;5011863;28;20073;-64
2022/11/07 10:24:22;;;;;;;7.65;1.90;;;;;;;12.10;77.14;100548.94;5012784;28;20429;-63
2022/11/07 10:26:49;;;;;;;6.13;2.28;;;;;;;12.11;76.58;100544.50;5005089;28;20134;-63
2022/11/07 10:29:23;;;;;;;6.53;1.60;;;;;;;12.16;77.02;100552.97;5003689;28;20152;-64
2022/11/07 10:31:57;;;;;;;4.40;1.73;;;;;;;12.27;77.08;100568.09;5010212;28;20050;-63
2022/11/07 10:34:35;;;;;;;6.93;1.73;;;;;;;12.29;76.04;100553.84;5000785;28;20054;-63
2022/11/07 10:37:03;;;;;;;3.70;1.60;;;;;;;12.39;76.15;100562.00;5004784;28;20053;-63
2022/11/07 10:39:30;;;;;;;6.72;1.60;;;;;;;12.51;75.75;100555.00;4997641;28;20132;-63
2022/11/07 10:42:01;;;;;;;5.15;1.77;;;;;;;12.64;74.81;100559.34;4998497;28;20516;-63
2022/11/07 10:44:28;;;;;;;7.32;1.92;;;;;;;12.77;74.74;100546.16;4993003;28;20060;-63
2022/11/07 10:46:55;;;;;;;6.10;1.50;;;;;;;13.00;73.76;100549.81;5001237;28;20141;-62
2022/11/07 10:49:29;;;;;;;8.55;1.65;;;;;;;13.30;72.55;100551.28;5001734;28;20049;-63
2022/11/07 10:52:07;;;;;;;5.03;1.63;;;;;;;13.39;72.06;100550.63;5000483;28;20088;-63
2022/11/07 10:54:34;;;;;;;5.72;1.60;;;;;;;13.46;71.56;100545.72;4999585;28;20052;-64
2022/11/07 10:57:15;;;;;;;4.18;1.70;;;;;;;13.59;71.20;100546.53;5005386;28;20164;-64
2022/11/07 10:59:55;;;;;;;2.65;1.42;;;;;;;13.73;70.45;100554.31;5001169;28;20132;-64
2022/11/07 11:02:24;;;;;;;11.52;2.17;;;;;;;13.83;70.14;100551.84;5006100;28;20205;-63
2022/11/07 11:05:01;;;;;;;7.03;2.17;;;;;;;13.85;69.13;100542.00;5002164;28;20049;-64
2022/11/07 11:07:39;;;;;;;4.28;1.60;;;;;;;13.92;69.72;100540.59;5020751;28;20784;-64
2022/11/07 11:10:27;;;;;;;3.20;1.33;;;;;;;14.11;69.14;100538.25;4994763;28;20054;-64
2022/11/07 11:12:55;;;;;;;5.35;1.88;;;;;;;14.24;67.32;100540.81;4998365;28;20218;-63
2022/11/07 11:15:24;;;;;;;6.32;1.58;;;;;;;14.37;67.68;100541.59;4988619;28;20049;-64
2022/11/07 11:17:59;;;;;;;5.03;2.08;;;;;;;14.57;66.37;100542.72;4999936;28;20065;-62
2022/11/07 11:20:26;;;;;;;2.45;1.42;;;;;;;14.67;66.94;100546.34;5000432;28;20076;-64
2022/11/07 11:22:54;;;;;;;5.93;1.35;;;;;;;14.81;65.80;100531.19;4991945;28;20136;-63
2022/11/07 11:25:22;;;;;;;3.05;1.38;;;;;;;14.81;65.32;100533.84;5011676;28;20050;-64
2022/11/07 11:27:54;;;;;;;3.67;1.40;;;;;;;14.75;65.04;100534.31;5020793;28;20401;-64
2022/11/07 11:30:21;;;;;;;5.78;1.83;;;;;;;14.83;65.06;100545.19;5011699;28;20353;-64
2022/11/07 11:33:10;;;;;;;5.10;1.52;;;;;;;15.07;65.29;100532.63;5015457;28;20050;-63
2022/11/07 11:35:40;;;;;;;4.47;1.92;;;;;;;15.11;64.36;100528.78;4999430;28;20060;-63
2022/11/07 11:38:28;;;;;;;4.95;1.67;;;;;;;15.07;64.54;100542.41;5003956;28;20128;-64
2022/11/07 11:41:03;;;;;;;4.93;1.63;;;;;;;14.96;64.07;100531.81;4997392;28;20339;-64
2022/11/07 11:43:46;;;;;;;5.82;1.80;;;;;;;15.00;64.21;100527.97;4991931;28;20067;-63
2022/11/07 11:46:23;;;;;;;6.18;1.42;;;;;;;15.29;63.79;100536.22;4996643;28;20050;-64
2022/11/07 11:48:59;;;;;;;4.25;2.03;;;;;;;15.34;63.00;100532.25;4988237;28;20157;-64
2022/11/07 11:51:29;;;;;;;7.20;1.95;;;;;;;15.72;62.72;100536.31;5000510;28;20059;-64
2022/11/07 11:53:56;;;;;;;5.90;2.10;;;;;;;16.17;62.70;100525.50;4994024;28;20142;-64
2022/11/07 11:56:38;;;;;;;7.90;1.83;;;;;;;16.13;59.31;100537.34;5007535;28;20062;-63
2022/11/07 11:59:14;;;;;;;3.78;1.67;;;;;;;15.97;61.33;100528.94;5003611;28;20056;-64
2022/11/07 12:01:53;;;;;;;5.50;1.70;;;;;;;16.20;59.86;100535.84;4999995;28;20054;-64
2022/11/07 12:04:39;;;;;;;4.90;1.67;;;;;;;16.30;59.70;100533.25;5002607;28;20096;-63
2022/11/07 12:07:09;;;;;;;;;;;;;;;16.09;59.86;100523.47;5010330;28;20645;-63
2022/11/07 12:09:47;;;;;;;6.75;2.38;;;;;;;15.64;60.59;100522.81;5007343;28;20342;-64
2022/11/07 12:12:54;;;;;;;5.68;1.67;;;;;;;15.63;61.46;100529.06;4997891;28;20050;-63
2022/11/07 12:15:21;;;;;;;6.50;2.08;;;;;;;15.88;61.05;100519.94;4999040;28;20054;-64
2022/11/07 12:18:18;;;;;;;4.28;1.60;;;;;;;15.94;60.46;100517.63;4999999;28;20046;-63
2022/11/07 12:20:51;;;;;;;4.57;1.42;;;;;;;15.91;61.40;100520.53;5002359;28;20053;-68
2022/11/07 12:23:50;;;;;;;6.28;1.83;;;;;;;16.06;60.40;100518.41;5005804;28;20050;-64
2022/11/07 12:26:27;;;;;;;6.40;1.45;;;;;;;15.93;60.40;100520.41;5017043;28;20498;-64
2022/11/07 12:29:27;;;;;;;7.90;1.90;;;;;;;15.70;61.39;100523.13;5014480;28;20057;-64
2022/11/07 12:32:13;;;;;;;6.18;1.65;;;;;;;15.77;61.08;100523.50;5045274;28;20141;-64
2022/11/07 12:35:01;;;;;;;5.63;1.73;;;;;;;16.05;61.80;100523.84;4996698;28;20081;-64
2022/11/07 12:38:07;;;;;;;4.55;2.00;;;;;;;16.59;59.28;100515.69;4997074;28;20054;-62
2022/11/07 12:40:46;;;;;;;4.13;1.70;;;;;;;16.81;57.11;100524.50;5006485;28;20495;-63
2022/11/07 12:43:19;;;;;;;11.07;2.22;;;;;;;16.83;58.87;100518.06;5003638;28;20081;-64
2022/11/07 12:46:18;;;;;;;4.97;1.52;;;;;;;17.04;57.52;100530.47;4998031;28;20057;-63
2022/11/07 12:48:47;;;;;;;7.75;1.90;;;;;;;17.18;56.74;100530.94;5025803;28;20145;-63
2022/11/07 12:51:32;;;;;;;5.22;1.58;;;;;;;17.24;55.93;100532.22;4990133;28;20142;-63
2022/11/07 12:54:20;;;;;;;6.33;1.37;;;;;;;16.89;56.86;100528.19;4994675;28;20041;-63
2022/11/07 12:56:48;;;;;;;5.32;1.73;;;;;;;16.73;57.95;100529.63;4997159;28;21399;-62
2022/11/07 12:59:25;;;;;;;3.95;1.45;;;;;;;16.41;58.72;100530.53;4996402;28;20690;-63
2022/11/07 13:02:01;;;;;;;7.13;1.90;;;;;;;16.01;58.99;100525.06;4994025;28;20061;-63
2022/11/07 13:04:37;;;;;;;6.38;2.08;;;;;;;15.57;59.92;100522.41;5001741;28;20060;-63
2022/11/07 13:07:29;;;;;;;5.75;2.00;;;;;;;15.37;61.75;100528.50;4998589;28;20054;-65
2022/11/07 13:10:18;;;;;;;7.65;2.00;;;;;;;15.37;62.15;100529.34;4992215;28;20056;-63
2022/11/07 13:13:11;;;;;;;4.20;1.73;;;;;;;15.11;62.35;100530.59;4995824;28;20080;-62
2022/11/07 13:15:39;;;;;;;6.13;1.58;;;;;;;14.93;63.86;100559.38;4993756;28;20138;-63
2022/11/07 13:18:27;;;;;;;4.28;1.75;;;;;;;14.78;63.43;100539.41;4998569;28;20107;-64
2022/11/07 13:21:02;;;;;;;5.45;1.92;;;;;;;14.67;64.13;100540.22;4998035;28;20501;-63
2022/11/07 13:23:29;;;;;;;6.57;1.95;;;;;;;14.64;64.55;100530.72;5002100;28;20161;-63
2022/11/07 13:25:58;;;;;;;4.03;1.27;;;;;;;14.67;64.98;100546.34;4990147;28;20141;-64
2022/11/07 13:28:34;;;;;;;5.75;1.73;;;;;;;14.70;64.94;100537.34;4990998;28;20490;-64
2022/11/07 13:31:02;;;;;;;4.95;1.75;;;;;;;14.51;65.05;100537.91;4995622;28;20749;-62
2022/11/07 13:33:34;;;;;;;10.10;2.47;;;;;;;14.36;65.82;100544.31;4999788;28;20046;-63
2022/11/07 13:36:14;;;;;;;4.70;1.77;;;;;;;14.23;66.13;100544.44;4995495;28;20064;-63
2022/11/07 13:38:53;;;;;;;8.23;2.10;;;;;;;14.21;66.35;100534.91;4990267;28;20050;-64
2022/11/07 13:41:21;;;;;;;8.43;1.88;;;;;;;14.15;66.64;100531.78;5012236;28;20046;-63
2022/11/07 13:43:57;;;;;;;3.17;1.67;;;;;;;14.21;66.66;100545.50;4986898;28;20057;-64
2022/11/07 13:46:28;;;;;;;4.22;1.70;;;;;;;14.11;67.25;100548.84;4990476;28;20540;-62
2022/11/07 13:48:59;;;;;;;4.07;1.35;;;;;;;14.02;67.74;100554.81;5012799;28;20057;-64
2022/11/07 14:09:16;;;;;;;6.22;2.30;;;;;;;13.74;70.40;100544.59;5001662;28;20134;-64
2022/11/07 14:11:45;;;;;;;5.55;1.70;;;;;;;13.66;70.72;100539.84;4992997;28;20137;-64
2022/11/07 14:41:25;;;;;;;7.72;2.33;;;;;;;13.47;73.08;100524.50;4997725;28;20044;-64
2022/11/07 14:44:01;;;;;;;10.02;2.60;;;;;;;13.47;73.12;100528.94;4996209;28;20055;-65
2022/11/07 15:05:01;;;;;;;7.80;1.95;;;;;;;13.37;73.59;100513.75;5001396;28;20037;-63
2022/11/07 15:07:45;;;;;;;5.07;1.85;;;;;;;13.38;73.64;100526.00;5010139;28;20050;-64
2022/11/07 15:10:22;;;;;;;12.05;2.13;;;;;;;13.34;74.22;100515.75;5011945;28;20083;-64
2022/11/07 15:12:53;;;;;;;6.07;1.85;;;;;;;13.27;74.45;100522.41;5029230;28;20048;-63
2022/11/07 15:15:23;;;;;;;11.73;2.35;;;;;;;13.22;74.71;100514.81;4998347;28;20529;-63
2022/11/07 15:17:52;;;;;;;7.43;2.63;;;;;;;13.21;74.76;100523.69;5016070;28;20049;-63
2022/11/07 15:20:34;;;;;;;6.40;2.25;;;;;;;13.15;75.13;100521.50;4993577;28;20085;-63
2022/11/07 15:23:12;;;;;;;3.85;2.10;;;;;;;13.16;75.28;100526.66;5000589;28;20050;-63
2022/11/07 15:25:49;;;;;;;7.25;2.10;;;;;;;13.16;75.06;100525.81;4991988;28;20157;-63
2022/11/07 15:28:16;;;;;;;8.02;2.00;;;;;;;13.20;74.98;100511.44;4995760;28;22081;-64
2022/11/07 15:30:46;;;;;;;9.55;2.35;;;;;;;13.20;74.99;100526.44;4998509;28;20058;-64
2022/11/07 15:33:17;;;;;;;9.73;2.28;;;;;;;13.15;75.47;100522.34;4982985;28;20050;-63
2022/11/07 16:17:50;;;;;;;5.57;2.28;;;;;;;12.99;77.08;100537.56;4998565;28;20110;-64
2022/11/07 16:20:21;;;;;;;8.13;2.60;;;;;;;13.03;77.32;100546.13;4987882;28;20064;-64
2022/11/07 16:22:49;;;;;;;6.85;2.40;;;;;;;13.06;76.99;100544.13;4996856;28;20514;-63
2022/11/07 17:41:31;;;;;;;9.30;2.70;;;;;;;12.26;82.39;100588.34;4988280;28;20556;-63
2022/11/07 17:57:07;;;;;;;11.00;3.03;;;;;;;12.32;81.78;100595.00;5006597;28;20485;-63
2022/11/07 18:46:44;;;;;;;8.93;2.67;;;;;;;12.32;82.46;100624.06;4994562;28;19991;-63
2022/11/07 18:49:13;;;;;;;8.73;2.38;;;;;;;12.28;82.87;100610.19;5000937;28;20052;-64
2022/11/07 18:51:42;;;;;;;7.13;1.90;;;;;;;12.29;82.50;100611.03;4995048;28;20061;-64
2022/11/07 19:51:38;;;;;;;9.38;3.30;;;;;;;11.92;84.92;100624.00;4999156;28;20061;-63
2022/11/07 22:44:24;;;;;;;6.03;2.40;;;;;;;11.16;89.14;100662.09;5003318;28;20148;-64
2022/11/07 22:51:16;;;;;;;9.60;2.40;;;;;;;11.21;88.90;100653.06;5002478;28;20087;-63
2022/11/07 23:19:35;;;;;;;10.90;2.90;;;;;;;11.09;89.16;100659.94;4996664;28;20045;-62
